createdAt,value
2023-05-14T00:00:33.293Z,96273.84
2023-05-14T00:03:00.870Z,96266.34
2023-05-14T00:05:28.506Z,96273.53
2023-05-14T00:07:56.007Z,96267.84
2023-05-14T00:10:23.732Z,96269.06
2023-05-14T00:12:52.623Z,96262.22
2023-05-14T00:15:20.609Z,96261.88
2023-05-14T00:17:49.452Z,96257.81
2023-05-14T00:20:16.933Z,96259.25
2023-05-14T00:22:44.473Z,96254.31
2023-05-14T00:25:11.957Z,96253.56
2023-05-14T00:27:39.465Z,96246.75
2023-05-14T00:30:07.836Z,96244.63
2023-05-14T00:32:35.465Z,96243.66
2023-05-14T00:35:04.697Z,96248.78
2023-05-14T00:37:32.208Z,96244.03
2023-05-14T00:39:59.651Z,96246.16
2023-05-14T00:42:27.836Z,96240.34
2023-05-14T00:44:55.468Z,96239.88
2023-05-14T00:47:23.264Z,96231.22
2023-05-14T00:49:51.024Z,96234.53
2023-05-14T00:52:20.210Z,96230.50
2023-05-14T00:54:48.059Z,96233.50
2023-05-14T00:57:15.711Z,96232.13
2023-05-14T00:59:43.399Z,96231.88
2023-05-14T01:02:11.950Z,96228.28
2023-05-14T01:04:40.216Z,96238.06
2023-05-14T01:07:17.766Z,96235.75
2023-05-14T01:09:53.560Z,96233.22
2023-05-14T01:12:30.748Z,96233.78
2023-05-14T01:15:02.988Z,96240.78
2023-05-14T01:17:34.073Z,96235.28
2023-05-14T01:20:01.948Z,96232.56
2023-05-14T01:22:30.769Z,96241.88
2023-05-14T01:24:58.254Z,96231.47
2023-05-14T01:27:30.740Z,96225.94
2023-05-14T01:30:08.806Z,96229.00
2023-05-14T01:32:36.967Z,96220.50
2023-05-14T01:35:05.968Z,96230.31
2023-05-14T01:37:37.430Z,96230.72
2023-05-14T01:40:06.222Z,96216.97
2023-05-14T01:42:34.162Z,96230.69
2023-05-14T01:45:01.931Z,96216.19
2023-05-14T01:47:29.448Z,96211.50
2023-05-14T01:49:56.982Z,96208.06
2023-05-14T01:52:24.701Z,96215.75
2023-05-14T01:54:53.754Z,96217.25
2023-05-14T01:57:21.426Z,96220.41
2023-05-14T01:59:48.901Z,96216.75
2023-05-14T02:02:16.352Z,96219.03
2023-05-14T02:04:43.826Z,96222.19
2023-05-14T02:07:11.274Z,96225.69
2023-05-14T02:09:40.001Z,96217.09
2023-05-14T02:12:11.039Z,96218.06
2023-05-14T02:14:39.050Z,96212.44
2023-05-14T02:17:07.022Z,96218.53
2023-05-14T02:19:34.487Z,96227.34
2023-05-14T02:22:01.981Z,96217.56
2023-05-14T02:24:29.509Z,96216.91
2023-05-14T02:26:56.981Z,96214.09
2023-05-14T02:29:25.788Z,96215.41
2023-05-14T02:31:53.352Z,96207.94
2023-05-14T02:34:21.148Z,96210.25
2023-05-14T02:36:48.763Z,96204.28
2023-05-14T02:39:16.263Z,96201.03
2023-05-14T02:41:43.767Z,96200.28
2023-05-14T02:44:11.294Z,96196.31
2023-05-14T02:46:40.160Z,96197.31
2023-05-14T02:49:07.732Z,96190.31
2023-05-14T02:51:35.241Z,96196.81
2023-05-14T02:54:02.777Z,96190.28
2023-05-14T02:56:30.217Z,96193.84
2023-05-14T02:58:57.677Z,96185.13
2023-05-14T03:01:25.793Z,96189.16
2023-05-14T03:03:55.190Z,96189.03
2023-05-14T03:06:22.643Z,96183.91
2023-05-14T03:08:50.127Z,96188.84
2023-05-14T03:11:17.583Z,96194.94
2023-05-14T03:13:45.144Z,96188.19
2023-05-14T03:16:12.629Z,96202.69
2023-05-14T03:18:40.149Z,96195.09
2023-05-14T03:21:09.298Z,96192.31
2023-05-14T03:23:36.856Z,96197.94
2023-05-14T03:26:04.919Z,96188.13
2023-05-14T03:28:32.387Z,96190.22
2023-05-14T03:30:59.949Z,96190.91
2023-05-14T03:33:27.592Z,96192.72
2023-05-14T03:35:55.071Z,96194.50
2023-05-14T03:38:23.965Z,96188.47
2023-05-14T03:40:51.486Z,96190.47
2023-05-14T03:43:18.947Z,96189.78
2023-05-14T03:45:46.633Z,96205.47
2023-05-14T03:48:14.162Z,96199.00
2023-05-14T03:50:41.766Z,96204.34
2023-05-14T03:53:09.207Z,96194.94
2023-05-14T03:55:38.278Z,96183.19
2023-05-14T03:58:07.361Z,96179.91
2023-05-14T04:00:34.842Z,96170.66
2023-05-14T04:03:02.488Z,96160.13
2023-05-14T04:05:30.024Z,96158.84
2023-05-14T04:07:58.143Z,96157.69
2023-05-14T04:10:26.044Z,96156.25
2023-05-14T04:12:55.455Z,96157.63
2023-05-14T04:15:23.220Z,96154.91
2023-05-14T04:17:50.698Z,96151.66
2023-05-14T04:20:18.381Z,96152.59
2023-05-14T04:22:45.841Z,96154.94
2023-05-14T04:25:13.305Z,96142.66
2023-05-14T04:27:40.868Z,96153.53
2023-05-14T04:30:11.328Z,96151.22
2023-05-14T04:32:39.258Z,96149.44
2023-05-14T04:35:07.673Z,96150.78
2023-05-14T04:37:35.110Z,96154.22
2023-05-14T04:40:02.825Z,96155.19
2023-05-14T04:42:30.555Z,96151.97
2023-05-14T04:44:58.634Z,96150.22
2023-05-14T04:47:27.441Z,96150.66
2023-05-14T04:49:54.981Z,96149.44
2023-05-14T04:52:22.445Z,96151.06
2023-05-14T04:54:49.982Z,96157.13
2023-05-14T04:57:17.546Z,96146.09
2023-05-14T04:59:45.056Z,96147.59
2023-05-14T05:02:12.657Z,96147.50
2023-05-14T05:04:41.457Z,96142.13
2023-05-14T05:07:08.952Z,96149.31
2023-05-14T05:09:36.413Z,96156.97
2023-05-14T05:12:03.908Z,96145.28
2023-05-14T05:14:31.370Z,96151.59
2023-05-14T05:16:58.846Z,96154.56
2023-05-14T05:19:35.843Z,96148.44
2023-05-14T05:22:11.761Z,96141.25
2023-05-14T05:24:39.314Z,96151.06
2023-05-14T05:27:07.012Z,96156.22
2023-05-14T05:29:35.597Z,96150.25
2023-05-14T05:32:03.172Z,96143.81
2023-05-14T05:34:31.258Z,96143.09
2023-05-14T05:36:58.710Z,96152.13
2023-05-14T05:39:27.537Z,96143.66
2023-05-14T05:41:55.061Z,96143.97
2023-05-14T05:44:22.515Z,96136.94
2023-05-14T05:46:50.961Z,96144.81
2023-05-14T05:49:18.585Z,96140.25
2023-05-14T05:51:46.089Z,96143.88
2023-05-14T05:54:13.530Z,96144.19
2023-05-14T05:56:42.374Z,96142.16
2023-05-14T05:59:09.934Z,96129.53
2023-05-14T06:01:37.551Z,96143.31
2023-05-14T06:04:06.319Z,96146.78
2023-05-14T06:06:33.956Z,96150.00
2023-05-14T06:09:02.052Z,96144.00
2023-05-14T06:11:29.522Z,96140.44
2023-05-14T06:13:58.315Z,96147.56
2023-05-14T06:16:25.865Z,96144.06
2023-05-14T06:18:54.397Z,96146.00
2023-05-14T06:21:21.898Z,96142.66
2023-05-14T06:23:49.338Z,96142.84
2023-05-14T06:26:16.799Z,96142.47
2023-05-14T06:28:44.245Z,96145.28
2023-05-14T06:31:13.627Z,96142.84
2023-05-14T06:33:41.076Z,96148.78
2023-05-14T06:36:09.238Z,96145.00
2023-05-14T06:38:36.685Z,96139.28
2023-05-14T06:41:04.648Z,96144.44
2023-05-14T06:43:32.260Z,96141.13
2023-05-14T06:46:00.175Z,96137.22
2023-05-14T06:48:29.456Z,96141.69
2023-05-14T06:50:57.165Z,96134.50
2023-05-14T06:53:24.628Z,96137.22
2023-05-14T06:55:52.093Z,96141.47
2023-05-14T06:58:19.568Z,96130.94
2023-05-14T07:00:47.046Z,96139.53
2023-05-14T07:03:14.547Z,96135.00
2023-05-14T07:05:44.874Z,96152.38
2023-05-14T07:08:12.346Z,96148.28
2023-05-14T07:10:40.002Z,96148.06
2023-05-14T07:13:07.473Z,96148.03
2023-05-14T07:15:34.917Z,96135.91
2023-05-14T07:18:02.434Z,96148.31
2023-05-14T07:20:29.895Z,96138.16
2023-05-14T07:22:58.670Z,96140.84
2023-05-14T07:25:26.183Z,96135.66
2023-05-14T07:27:53.621Z,96139.91
2023-05-14T07:30:21.577Z,96134.66
2023-05-14T07:32:49.215Z,96131.19
2023-05-14T07:35:16.861Z,96124.41
2023-05-14T07:37:44.611Z,96112.06
2023-05-14T07:40:13.716Z,96118.59
2023-05-14T07:42:41.227Z,96117.13
2023-05-14T07:45:10.524Z,96121.19
2023-05-14T07:47:38.023Z,96129.97
2023-05-14T07:50:06.345Z,96121.28
2023-05-14T07:52:33.874Z,96126.50
2023-05-14T07:55:01.741Z,96121.53
2023-05-14T07:57:30.596Z,96115.50
2023-05-14T07:59:58.091Z,96109.06
2023-05-14T08:02:25.662Z,96105.16
2023-05-14T08:04:53.499Z,96105.06
2023-05-14T08:07:21.575Z,96096.09
2023-05-14T08:09:49.013Z,96101.78
2023-05-14T08:12:16.575Z,96109.44
2023-05-14T08:14:46.007Z,96109.38
2023-05-14T08:17:13.746Z,96096.03
2023-05-14T08:19:41.356Z,96093.31
2023-05-14T08:22:08.794Z,96101.69
2023-05-14T08:24:36.413Z,96093.63
2023-05-14T08:27:03.943Z,96085.91
2023-05-14T08:29:31.425Z,96084.66
2023-05-14T08:32:05.795Z,96084.75
2023-05-14T08:34:39.495Z,96078.97
2023-05-14T08:37:06.979Z,96066.47
2023-05-14T08:39:34.473Z,96064.03
2023-05-14T08:42:03.318Z,96057.63
2023-05-14T08:44:37.106Z,96060.16
2023-05-14T08:47:07.014Z,96052.13
2023-05-14T08:49:41.481Z,96054.31
2023-05-14T08:52:09.863Z,96056.91
2023-05-14T08:54:37.630Z,96056.13
2023-05-14T08:57:05.782Z,96053.53
2023-05-14T08:59:33.381Z,96051.94
2023-05-14T09:02:04.963Z,96051.19
2023-05-14T09:04:34.660Z,96051.78
2023-05-14T09:07:04.101Z,96054.22
2023-05-14T09:09:32.072Z,96048.84
2023-05-14T09:11:59.585Z,96052.66
2023-05-14T09:14:27.220Z,96053.69
2023-05-14T09:16:55.735Z,96048.34
2023-05-14T09:19:23.451Z,96047.31
2023-05-14T09:21:52.435Z,96041.81
2023-05-14T09:24:21.269Z,96042.16
2023-05-14T09:26:51.669Z,96037.78
2023-05-14T09:29:19.156Z,96043.78
2023-05-14T09:31:47.162Z,96042.31
2023-05-14T09:34:25.018Z,96046.19
2023-05-14T09:36:57.969Z,96048.50
2023-05-14T09:39:25.488Z,96038.53
2023-05-14T09:41:53.861Z,96035.47
2023-05-14T09:44:21.861Z,96039.69
2023-05-14T09:46:50.172Z,96029.94
2023-05-14T09:49:17.958Z,96020.09
2023-05-14T09:51:45.571Z,96030.81
2023-05-14T09:54:14.348Z,96033.56
2023-05-14T09:56:42.014Z,96027.41
2023-05-14T09:59:09.481Z,96028.69
2023-05-14T10:01:38.576Z,96026.97
2023-05-14T10:04:09.247Z,96021.53
2023-05-14T10:06:39.256Z,96019.75
2023-05-14T10:09:13.073Z,96015.31
2023-05-14T10:11:44.732Z,96021.69
2023-05-14T10:14:18.203Z,96021.94
2023-05-14T10:16:49.894Z,96014.22
2023-05-14T10:19:18.967Z,96018.38
2023-05-14T10:21:50.790Z,96016.72
2023-05-14T10:24:19.833Z,96013.25
2023-05-14T10:26:49.465Z,96007.22
2023-05-14T10:29:17.133Z,96000.44
2023-05-14T10:31:49.110Z,96002.28
2023-05-14T10:34:33.492Z,95997.84
2023-05-14T10:37:02.246Z,95999.41
2023-05-14T10:39:48.441Z,96000.25
2023-05-14T10:42:19.683Z,95994.09
2023-05-14T10:44:53.345Z,95995.09
2023-05-14T10:47:21.274Z,95990.03
2023-05-14T10:49:49.984Z,95989.56
2023-05-14T10:52:22.058Z,95979.41
2023-05-14T10:54:54.089Z,95977.94
2023-05-14T10:57:24.118Z,95981.31
2023-05-14T10:59:55.011Z,95982.53
2023-05-14T11:02:24.868Z,95972.63
2023-05-14T11:05:03.576Z,95985.91
2023-05-14T11:07:33.225Z,95984.47
2023-05-14T11:10:03.414Z,95975.03
2023-05-14T11:12:33.220Z,95981.47
2023-05-14T11:15:03.786Z,95968.63
2023-05-14T11:17:32.686Z,95969.91
2023-05-14T11:20:00.971Z,95974.47
2023-05-14T11:22:28.623Z,95969.06
2023-05-14T11:24:56.103Z,95963.28
2023-05-14T11:27:24.854Z,95954.72
2023-05-14T11:29:55.800Z,95956.59
2023-05-14T11:32:23.485Z,95952.19
2023-05-14T11:34:51.219Z,95960.34
2023-05-14T11:37:18.696Z,95950.66
2023-05-14T11:39:50.934Z,95945.91
2023-05-14T11:42:19.658Z,95941.41
2023-05-14T11:44:48.940Z,95943.69
2023-05-14T11:47:18.630Z,95944.63
2023-05-14T11:49:46.581Z,95941.44
2023-05-14T11:52:15.738Z,95935.97
2023-05-14T11:54:44.327Z,95931.47
2023-05-14T11:57:13.683Z,95930.81
2023-05-14T11:59:41.682Z,95924.78
2023-05-14T12:02:11.604Z,95922.03
2023-05-14T12:04:41.773Z,95925.91
2023-05-14T12:07:11.471Z,95912.50
2023-05-14T12:09:43.564Z,95913.56
2023-05-14T12:12:13.412Z,95909.25
2023-05-14T12:14:42.646Z,95903.28
2023-05-14T12:17:15.041Z,95896.78
2023-05-14T12:19:45.660Z,95902.91
2023-05-14T12:22:16.351Z,95900.47
2023-05-14T12:24:44.551Z,95889.22
2023-05-14T12:27:12.818Z,95888.84
2023-05-14T12:29:40.338Z,95887.22
2023-05-14T12:32:09.624Z,95876.44
2023-05-14T12:34:37.821Z,95878.94
2023-05-14T12:37:07.029Z,95888.56
2023-05-14T12:39:35.676Z,95891.06
2023-05-14T12:42:03.312Z,95885.13
2023-05-14T12:44:31.236Z,95884.72
2023-05-14T12:46:58.783Z,95875.50
2023-05-14T12:49:26.282Z,95884.66
2023-05-14T12:52:07.682Z,95880.25
2023-05-14T12:54:43.404Z,95878.78
2023-05-14T12:57:11.027Z,95871.53
2023-05-14T12:59:38.460Z,95869.97
2023-05-14T13:02:06.246Z,95876.31
2023-05-14T13:04:33.771Z,95868.72
2023-05-14T13:07:01.344Z,95875.00
2023-05-14T13:09:28.803Z,95868.38
2023-05-14T13:11:57.590Z,95871.13
2023-05-14T13:14:25.192Z,95862.88
2023-05-14T13:16:52.682Z,95867.53
2023-05-14T13:19:20.178Z,95859.00
2023-05-14T13:21:47.635Z,95863.75
2023-05-14T13:24:15.117Z,95859.56
2023-05-14T13:26:44.393Z,95862.44
2023-05-14T13:29:13.332Z,95857.88
2023-05-14T13:31:40.788Z,95863.69
2023-05-14T13:34:08.794Z,95857.81
2023-05-14T13:36:39.479Z,95847.81
2023-05-14T13:39:07.045Z,95849.63
2023-05-14T13:41:35.691Z,95847.41
2023-05-14T13:44:03.159Z,95853.34
2023-05-14T13:46:32.043Z,95849.81
2023-05-14T13:48:59.565Z,95838.75
2023-05-14T13:51:27.103Z,95842.66
2023-05-14T13:56:26.940Z,95843.84
2023-05-14T13:58:54.428Z,95838.63
2023-05-14T14:01:23.267Z,95834.47
2023-05-14T14:03:52.183Z,95846.63
2023-05-14T14:06:19.650Z,95840.38
2023-05-14T14:08:47.101Z,95837.78
2023-05-14T14:11:14.684Z,95842.44
2023-05-14T14:13:43.281Z,95839.59
2023-05-14T14:16:11.920Z,95830.88
2023-05-14T14:18:39.457Z,95829.69
2023-05-14T14:21:08.327Z,95839.06
2023-05-14T14:23:35.863Z,95837.78
2023-05-14T14:26:03.758Z,95839.09
2023-05-14T14:28:31.680Z,95840.69
2023-05-14T14:30:59.515Z,95839.22
2023-05-14T14:33:27.261Z,95857.88
2023-05-14T14:35:54.787Z,95864.63
2023-05-14T14:38:23.558Z,95863.88
2023-05-14T14:40:51.317Z,95869.03
2023-05-14T14:43:18.800Z,95873.41
2023-05-14T14:45:48.311Z,95878.75
2023-05-14T14:48:31.351Z,95884.88
2023-05-14T14:50:59.165Z,95878.59
2023-05-14T14:53:28.057Z,95880.97
2023-05-14T14:55:55.677Z,95877.03
2023-05-14T14:58:23.685Z,95874.94
2023-05-14T15:00:53.691Z,95888.06
2023-05-14T15:03:21.819Z,95894.75
2023-05-14T15:05:49.661Z,95885.69
2023-05-14T15:08:17.099Z,95888.00
2023-05-14T15:10:46.666Z,95897.03
2023-05-14T15:13:14.257Z,95893.44
2023-05-14T15:15:41.792Z,95896.69
2023-05-14T15:18:09.302Z,95891.81
2023-05-14T15:20:36.850Z,95893.91
2023-05-14T15:23:04.355Z,95891.63
2023-05-14T15:25:31.828Z,95896.28
2023-05-14T15:28:00.793Z,95900.16
2023-05-14T15:30:28.215Z,95888.44
2023-05-14T15:32:56.529Z,95898.69
2023-05-14T15:35:24.472Z,95898.06
2023-05-14T15:37:52.197Z,95895.50
2023-05-14T15:40:20.161Z,95898.06
2023-05-14T15:42:47.749Z,95891.81
2023-05-14T15:45:16.562Z,95901.97
2023-05-14T15:47:45.162Z,95891.69
2023-05-14T15:50:13.097Z,95890.16
2023-05-14T15:52:41.428Z,95889.28
2023-05-14T15:55:09.922Z,95884.44
2023-05-14T15:57:37.754Z,95889.13
2023-05-14T16:00:10.372Z,95886.72
2023-05-14T16:02:40.098Z,95889.50
2023-05-14T16:05:08.818Z,95887.44
2023-05-14T16:07:37.023Z,95893.00
2023-05-14T16:10:05.037Z,95898.44
2023-05-14T16:12:32.594Z,95891.09
2023-05-14T16:15:00.220Z,95893.38
2023-05-14T16:17:28.057Z,95894.34
2023-05-14T16:19:57.314Z,95896.44
2023-05-14T16:22:24.741Z,95892.31
2023-05-14T16:24:52.175Z,95893.59
2023-05-14T16:27:19.821Z,95885.75
2023-05-14T16:29:47.324Z,95874.19
2023-05-14T16:32:14.862Z,95881.09
2023-05-14T16:34:47.341Z,95873.16
2023-05-14T16:37:16.269Z,95874.78
2023-05-14T16:39:43.914Z,95869.75
2023-05-14T16:42:11.386Z,95864.88
2023-05-14T16:44:38.860Z,95861.97
2023-05-14T16:47:06.529Z,95865.09
2023-05-14T16:49:34.026Z,95856.34
2023-05-14T16:52:01.512Z,95860.97
2023-05-14T16:54:30.272Z,95855.41
2023-05-14T16:56:58.769Z,95856.25
2023-05-14T16:59:26.340Z,95857.25
2023-05-14T17:01:53.832Z,95848.06
2023-05-14T17:04:21.396Z,95852.78
2023-05-14T17:06:49.254Z,95853.81
2023-05-14T17:09:17.645Z,95858.84
2023-05-14T17:11:46.440Z,95851.53
2023-05-14T17:14:13.934Z,95858.28
2023-05-14T17:16:42.294Z,95858.22
2023-05-14T17:19:09.877Z,95854.88
2023-05-14T17:21:37.391Z,95850.78
2023-05-14T17:24:05.040Z,95850.59
2023-05-14T17:26:32.523Z,95861.44
2023-05-14T17:29:01.691Z,95860.25
2023-05-14T17:31:29.184Z,95858.75
2023-05-14T17:33:56.655Z,95860.66
2023-05-14T17:36:24.387Z,95849.06
2023-05-14T17:38:52.401Z,95857.66
2023-05-14T17:41:19.903Z,95861.03
2023-05-14T17:43:47.374Z,95872.75
2023-05-14T17:46:16.190Z,95871.69
2023-05-14T17:48:43.675Z,95866.28
2023-05-14T17:51:11.140Z,95867.56
2023-05-14T17:53:38.616Z,95860.63
2023-05-14T17:56:06.385Z,95857.31
2023-05-14T17:58:34.130Z,95854.22
2023-05-14T18:01:01.719Z,95855.94
2023-05-14T18:03:30.729Z,95861.00
2023-05-14T18:05:59.688Z,95854.25
2023-05-14T18:08:27.164Z,95863.00
2023-05-14T18:10:54.636Z,95858.47
2023-05-14T18:13:22.105Z,95866.75
2023-05-14T18:15:51.522Z,95866.69
2023-05-14T18:18:18.986Z,95868.81
2023-05-14T18:20:48.213Z,95861.06
2023-05-14T18:23:15.673Z,95854.63
2023-05-14T18:25:43.382Z,95854.25
2023-05-14T18:28:11.257Z,95859.28
2023-05-14T18:30:38.754Z,95853.22
2023-05-14T18:33:06.279Z,95851.03
2023-05-14T18:35:35.098Z,95857.59
2023-05-14T18:38:03.989Z,95847.19
2023-05-14T18:40:31.443Z,95847.09
2023-05-14T18:42:58.870Z,95846.59
2023-05-14T18:45:26.603Z,95844.66
2023-05-14T18:47:54.271Z,95858.50
2023-05-14T18:50:21.816Z,95859.44
2023-05-14T18:52:49.343Z,95861.00
2023-05-14T18:55:18.265Z,95840.94
2023-05-14T18:57:45.917Z,95839.16
2023-05-14T19:00:14.581Z,95832.44
2023-05-14T19:02:42.412Z,95841.94
2023-05-14T19:05:10.439Z,95835.72
2023-05-14T19:07:38.476Z,95852.22
2023-05-14T19:10:07.147Z,95850.75
2023-05-14T19:12:35.941Z,95849.50
2023-05-14T19:15:04.425Z,95851.59
2023-05-14T19:17:32.786Z,95848.41
2023-05-14T19:20:00.433Z,95851.63
2023-05-14T19:22:27.923Z,95848.91
2023-05-14T19:24:55.443Z,95849.03
2023-05-14T19:27:24.126Z,95846.75
2023-05-14T19:29:53.103Z,95860.03
2023-05-14T19:32:20.557Z,95864.53
2023-05-14T19:34:49.493Z,95859.84
2023-05-14T19:37:18.444Z,95856.63
2023-05-14T19:39:45.910Z,95854.34
2023-05-14T19:42:13.391Z,95854.19
2023-05-14T19:44:40.886Z,95852.47
2023-05-14T19:47:09.877Z,95855.28
2023-05-14T19:49:37.436Z,95854.06
2023-05-14T19:52:05.306Z,95856.38
2023-05-14T19:54:32.820Z,95851.03
2023-05-14T19:57:00.349Z,95859.66
2023-05-14T19:59:29.394Z,95856.44
2023-05-14T20:01:56.932Z,95855.13
2023-05-14T20:04:26.066Z,95858.03
2023-05-14T20:06:53.610Z,95859.06
2023-05-14T20:09:21.115Z,95855.31
2023-05-14T20:11:48.708Z,95849.53
2023-05-14T20:14:16.224Z,95853.59
2023-05-14T20:16:43.796Z,95851.03
2023-05-14T20:19:11.934Z,95854.50
2023-05-14T20:21:41.324Z,95865.50
2023-05-14T20:24:08.957Z,95858.03
2023-05-14T20:26:36.484Z,95859.16
2023-05-14T20:29:03.969Z,95868.53
2023-05-14T20:31:31.482Z,95855.22
2023-05-14T20:33:58.956Z,95858.34
2023-05-14T20:36:26.424Z,95852.94
2023-05-14T20:38:55.864Z,95851.09
2023-05-14T20:41:23.331Z,95852.66
2023-05-14T20:43:50.862Z,95845.56
2023-05-14T20:46:18.382Z,95855.63
2023-05-14T20:48:47.784Z,95855.38
2023-05-14T20:51:15.282Z,95851.84
2023-05-14T20:53:42.720Z,95852.00
2023-05-14T20:56:11.576Z,95843.97
2023-05-14T20:58:39.030Z,95847.03
2023-05-14T21:01:07.940Z,95846.25
2023-05-14T21:03:35.561Z,95845.22
2023-05-14T21:06:03.560Z,95845.75
2023-05-14T21:08:32.760Z,95840.78
2023-05-14T21:11:00.548Z,95843.47
2023-05-14T21:13:29.354Z,95839.78
2023-05-14T21:15:56.959Z,95845.03
2023-05-14T21:18:26.599Z,95857.44
2023-05-14T21:20:54.096Z,95852.97
2023-05-14T21:23:21.590Z,95854.63
2023-05-14T21:25:49.093Z,95847.41
2023-05-14T21:28:16.604Z,95850.81
2023-05-14T21:30:45.775Z,95842.94
2023-05-14T21:33:13.298Z,95848.34
2023-05-14T21:35:40.787Z,95846.03
2023-05-14T21:38:08.803Z,95843.22
2023-05-14T21:40:36.644Z,95851.72
2023-05-14T21:43:04.269Z,95857.88
2023-05-14T21:45:31.744Z,95845.94
2023-05-14T21:48:00.702Z,95861.38
2023-05-14T21:50:28.332Z,95861.94
2023-05-14T21:52:55.814Z,95854.88
2023-05-14T21:55:24.690Z,95850.13
2023-05-14T21:57:52.480Z,95853.75
2023-05-14T22:00:23.386Z,95859.44
2023-05-14T22:02:51.571Z,95851.00
2023-05-14T22:05:20.527Z,95866.31
2023-05-14T22:07:48.056Z,95863.75
2023-05-14T22:10:16.574Z,95862.53
2023-05-14T22:12:45.266Z,95859.63
2023-05-14T22:15:13.740Z,95857.19
2023-05-14T22:17:41.632Z,95849.97
2023-05-14T22:20:10.384Z,95845.63
2023-05-14T22:22:39.670Z,95831.66
2023-05-14T22:25:07.754Z,95832.97
2023-05-14T22:27:35.315Z,95830.78
2023-05-14T22:30:02.822Z,95829.38
2023-05-14T22:32:30.327Z,95829.75
2023-05-14T22:34:57.838Z,95834.09
2023-05-14T22:37:25.441Z,95828.88
2023-05-14T22:39:54.251Z,95830.00
2023-05-14T22:42:21.724Z,95826.97
2023-05-14T22:44:49.181Z,95815.38
2023-05-14T22:47:16.959Z,95817.31
2023-05-14T22:49:44.433Z,95813.94
2023-05-14T22:52:11.898Z,95811.16
2023-05-14T22:54:39.379Z,95811.53
2023-05-14T22:57:08.434Z,95812.66
2023-05-14T22:59:36.047Z,95815.81
2023-05-14T23:02:03.575Z,95813.06
2023-05-14T23:04:31.101Z,95817.72
2023-05-14T23:06:59.042Z,95819.00
2023-05-14T23:09:26.532Z,95825.09
2023-05-14T23:11:54.059Z,95821.66
2023-05-14T23:14:22.895Z,95809.84
2023-05-14T23:16:50.450Z,95804.00
2023-05-14T23:19:18.134Z,95801.91
2023-05-14T23:21:45.901Z,95793.00
2023-05-14T23:24:13.394Z,95783.03
2023-05-14T23:26:40.891Z,95774.34
2023-05-14T23:29:08.404Z,95777.66
2023-05-14T23:31:38.625Z,95766.97
2023-05-14T23:34:06.239Z,95763.59
2023-05-14T23:36:33.858Z,95764.72
2023-05-14T23:39:01.426Z,95752.09
2023-05-14T23:41:28.882Z,95749.28
2023-05-14T23:43:56.466Z,95750.94
2023-05-14T23:46:24.444Z,95744.75
2023-05-14T23:48:56.942Z,95749.25
2023-05-14T23:51:24.668Z,95737.69
2023-05-14T23:53:56.242Z,95734.53
2023-05-14T23:56:23.749Z,95732.13
2023-05-14T23:58:51.425Z,95729.03
